createdAt,value
2024-04-11T00:02:39.113Z,2.05
2024-04-11T00:07:52.031Z,2.05
2024-04-11T00:13:00.758Z,1.92
2024-04-11T00:18:10.505Z,1.83
2024-04-11T00:23:23.365Z,2.03
2024-04-11T00:28:32.673Z,1.98
2024-04-11T00:39:08.564Z,1.48
2024-04-11T00:44:18.013Z,1.35
2024-04-11T00:49:27.535Z,1.50
2024-04-11T00:54:39.108Z,1.67
2024-04-11T00:59:48.070Z,1.67
2024-04-11T01:04:56.878Z,1.42
2024-04-11T01:10:10.058Z,1.45
2024-04-11T01:15:19.047Z,1.45
2024-04-11T01:25:40.425Z,1.40
2024-04-11T01:30:49.163Z,1.23
2024-04-11T01:35:58.159Z,2.58
2024-04-11T01:41:11.391Z,1.92
2024-04-11T01:46:20.382Z,1.00
2024-04-11T01:56:40.993Z,1.30
2024-04-11T02:01:49.769Z,1.20
2024-04-11T02:06:59.945Z,1.02
2024-04-11T02:12:13.288Z,1.48
2024-04-11T02:17:22.283Z,1.75
2024-04-11T02:22:55.388Z,1.90
2024-04-11T02:28:07.634Z,1.35
2024-04-11T02:33:16.559Z,1.50
2024-04-11T02:38:27.535Z,1.52
2024-04-11T02:43:41.707Z,1.52
2024-04-11T02:48:51.552Z,1.88
2024-04-11T02:54:00.623Z,1.52
2024-04-11T02:59:13.178Z,1.70
2024-04-11T03:04:23.709Z,1.52
2024-04-11T03:09:32.592Z,1.45
2024-04-11T03:14:44.221Z,2.15
2024-04-11T03:19:52.878Z,1.27
2024-04-11T03:25:01.486Z,1.92
2024-04-11T03:30:15.718Z,1.58
2024-04-11T03:35:24.492Z,2.13
2024-04-11T03:40:33.673Z,1.98
2024-04-11T03:45:45.306Z,2.00
2024-04-11T03:50:54.034Z,1.50
2024-04-11T03:56:02.819Z,2.00
2024-04-11T04:01:16.866Z,1.98
2024-04-11T04:06:25.883Z,1.77
2024-04-11T04:11:34.733Z,1.33
2024-04-11T04:16:48.162Z,2.63
2024-04-11T04:21:56.945Z,1.80
2024-04-11T04:27:05.988Z,1.20
2024-04-11T04:32:18.549Z,2.10
2024-04-11T04:37:27.131Z,1.40
2024-04-11T04:42:36.211Z,2.15
2024-04-11T04:52:59.055Z,1.65
2024-04-11T04:58:08.608Z,1.77
2024-04-11T05:03:20.499Z,1.83
2024-04-11T05:08:33.713Z,1.90
2024-04-11T05:13:45.726Z,2.30
2024-04-11T05:18:58.729Z,9.82
2024-04-11T05:24:07.593Z,40.58
2024-04-11T05:29:17.579Z,57.40
2024-04-11T05:34:31.374Z,50.45
2024-04-11T05:39:40.222Z,37.55
2024-04-11T05:44:49.252Z,21.38
2024-04-11T05:50:01.286Z,10.77
2024-04-11T05:55:12.416Z,5.63
2024-04-11T06:00:23.885Z,2.72
2024-04-11T06:05:35.548Z,1.67
2024-04-11T06:10:45.853Z,1.40
2024-04-11T06:15:55.305Z,1.40
2024-04-11T06:21:07.026Z,1.52
2024-04-11T06:26:18.575Z,1.48
2024-04-11T06:31:30.295Z,1.50
2024-04-11T06:36:41.536Z,0.93
2024-04-11T06:41:50.909Z,1.23
2024-04-11T06:46:59.619Z,1.42
2024-04-11T06:52:14.371Z,1.83
2024-04-11T06:57:23.777Z,1.10
2024-04-11T07:02:32.580Z,1.08
2024-04-11T07:07:47.364Z,1.13
2024-04-11T07:13:01.373Z,1.10
2024-04-11T07:18:16.714Z,1.27
2024-04-11T07:23:29.947Z,1.10
2024-04-11T07:28:41.553Z,1.38
2024-04-11T07:33:52.508Z,1.38
2024-04-11T07:39:05.208Z,1.35
2024-04-11T07:44:19.890Z,1.05
2024-04-11T07:49:34.009Z,2.47
2024-04-11T07:54:48.387Z,1.13
2024-04-11T08:00:01.897Z,1.17
2024-04-11T08:05:21.193Z,1.20
2024-04-11T08:10:36.877Z,1.35
2024-04-11T08:15:46.438Z,1.38
2024-04-11T08:20:56.462Z,1.58
2024-04-11T08:26:08.226Z,0.70
2024-04-11T08:31:17.094Z,1.00
2024-04-11T08:41:38.540Z,1.55
2024-04-11T08:46:47.073Z,1.10
2024-04-11T08:51:56.951Z,1.23
2024-04-11T08:57:09.803Z,1.42
2024-04-11T09:02:18.669Z,1.10
2024-04-11T09:07:27.880Z,0.98
2024-04-11T09:12:39.554Z,0.95
2024-04-11T09:17:52.656Z,1.00
2024-04-11T09:23:01.627Z,1.05
2024-04-11T09:28:13.322Z,0.88
2024-04-11T09:33:23.412Z,1.20
2024-04-11T09:38:32.948Z,1.00
2024-04-11T09:43:46.881Z,1.23
2024-04-11T09:48:56.631Z,1.42
2024-04-11T09:54:06.235Z,0.85
2024-04-11T09:59:18.253Z,0.85
2024-04-11T10:04:37.718Z,1.13
2024-04-11T10:09:54.592Z,1.40
2024-04-11T10:15:08.501Z,1.27
2024-04-11T10:20:21.807Z,0.75
2024-04-11T10:25:35.018Z,0.95
2024-04-11T10:30:52.822Z,0.93
2024-04-11T10:36:08.578Z,0.73
2024-04-11T10:41:21.185Z,0.90
2024-04-11T10:46:33.137Z,0.82
2024-04-11T10:51:42.445Z,0.70
2024-04-11T10:56:51.645Z,0.63
2024-04-11T11:02:10.575Z,1.05
2024-04-11T11:07:21.778Z,1.00
2024-04-11T11:12:30.731Z,1.20
2024-04-11T11:17:47.124Z,1.00
2024-04-11T11:22:58.639Z,0.80
2024-04-11T11:28:07.693Z,0.70
2024-04-11T11:33:19.817Z,0.55
2024-04-11T11:38:28.674Z,0.60
2024-04-11T11:43:45.515Z,0.90
2024-04-11T11:48:56.979Z,1.08
2024-04-11T11:54:14.199Z,0.75
2024-04-11T11:59:23.242Z,0.80
2024-04-11T12:09:44.887Z,0.70
2024-04-11T12:14:56.748Z,1.58
2024-04-11T12:20:16.828Z,1.15
2024-04-11T12:25:26.109Z,1.30
2024-04-11T12:30:34.938Z,1.83
2024-04-11T12:35:47.725Z,1.17
2024-04-11T12:41:00.241Z,1.30
2024-04-11T12:46:11.133Z,0.90
2024-04-11T12:51:22.546Z,0.90
2024-04-11T12:56:34.687Z,0.80
2024-04-11T13:01:43.746Z,1.20
2024-04-11T13:07:00.015Z,0.93
2024-04-11T13:12:11.160Z,0.82
2024-04-11T13:17:24.660Z,0.88
2024-04-11T13:22:43.411Z,0.98
2024-04-11T13:27:54.830Z,0.73
2024-04-11T13:33:05.050Z,1.13
2024-04-11T13:38:22.982Z,0.80
2024-04-11T13:43:31.625Z,0.90
2024-04-11T13:48:45.283Z,0.90
2024-04-11T13:53:59.116Z,1.00
2024-04-11T13:59:17.048Z,1.02
2024-04-11T14:04:47.460Z,0.95
2024-04-11T14:15:11.552Z,0.88
2024-04-11T14:20:33.565Z,0.90
2024-04-11T14:25:46.187Z,1.33
2024-04-11T14:31:10.979Z,1.23
2024-04-11T14:36:32.050Z,0.93
2024-04-11T14:41:44.267Z,1.48
2024-04-11T14:46:53.417Z,1.08
2024-04-11T14:52:05.816Z,1.05
2024-04-11T14:57:18.208Z,1.20
2024-04-11T15:02:30.951Z,1.40
2024-04-11T15:07:40.277Z,0.90
2024-04-11T15:12:52.244Z,0.63
2024-04-11T15:18:05.098Z,1.15
2024-04-11T15:23:14.442Z,0.90
2024-04-11T15:28:33.470Z,0.98
2024-04-11T15:33:56.188Z,0.85
2024-04-11T15:39:17.723Z,0.88
2024-04-11T15:44:39.292Z,1.27
2024-04-11T15:49:58.892Z,0.82
2024-04-11T15:55:16.527Z,0.80
2024-04-11T16:05:54.979Z,0.80
2024-04-11T16:11:05.101Z,1.13
2024-04-11T16:16:31.237Z,1.05
2024-04-11T16:21:45.900Z,1.50
2024-04-11T16:26:55.049Z,0.90
2024-04-11T16:32:07.432Z,1.08
2024-04-11T16:37:24.126Z,0.98
2024-04-11T16:42:36.470Z,0.90
2024-04-11T16:47:52.115Z,0.93
2024-04-11T16:53:03.331Z,1.08
2024-04-11T16:58:21.789Z,0.80
2024-04-11T17:03:36.121Z,0.98
2024-04-11T17:08:47.482Z,2.15
2024-04-11T17:14:00.503Z,1.52
2024-04-11T17:19:30.668Z,3.90
2024-04-11T17:24:42.093Z,2.58
2024-04-11T17:30:01.948Z,1.70
2024-04-11T17:35:47.867Z,2.22
2024-04-11T17:41:08.187Z,1.40
2024-04-11T17:46:20.852Z,1.30
2024-04-11T17:51:36.013Z,10.48
2024-04-11T17:56:47.114Z,5.72
2024-04-11T18:01:59.136Z,3.63
2024-04-11T18:07:16.288Z,2.03
2024-04-11T18:12:28.058Z,4.05
2024-04-11T18:17:39.356Z,3.13
2024-04-11T18:22:55.265Z,2.70
2024-04-11T18:28:13.942Z,4.38
2024-04-11T18:33:31.646Z,4.13
2024-04-11T18:38:46.997Z,3.58
2024-04-11T18:44:01.111Z,2.53
2024-04-11T18:49:20.158Z,2.22
2024-04-11T18:59:47.904Z,4.53
2024-04-11T19:05:12.414Z,4.93
2024-04-11T19:10:28.716Z,2.95
2024-04-11T19:15:50.017Z,2.80
2024-04-11T19:21:05.586Z,2.67
2024-04-11T19:26:26.981Z,5.53
2024-04-11T19:31:48.474Z,5.05
2024-04-11T19:37:05.328Z,6.78
2024-04-11T19:42:34.668Z,7.20
2024-04-11T19:47:47.382Z,5.47
2024-04-11T19:53:04.358Z,5.25
2024-04-11T19:58:18.368Z,4.70
2024-04-11T20:03:42.143Z,5.13
2024-04-11T20:08:52.166Z,4.63
2024-04-11T20:14:20.694Z,4.63
2024-04-11T20:19:41.119Z,3.20
2024-04-11T20:25:03.372Z,2.50
2024-04-11T20:30:22.383Z,3.33
2024-04-11T20:35:45.902Z,3.10
2024-04-11T20:41:05.888Z,2.95
2024-04-11T20:46:23.592Z,3.22
2024-04-11T20:51:49.451Z,2.38
2024-04-11T20:57:31.586Z,3.30
2024-04-11T21:02:59.687Z,2.83
2024-04-11T21:08:25.490Z,2.95
2024-04-11T21:13:50.098Z,3.22
2024-04-11T21:19:17.334Z,3.28
2024-04-11T21:24:41.886Z,3.65
2024-04-11T21:30:15.082Z,3.92
2024-04-11T21:35:29.516Z,3.80
2024-04-11T21:40:38.544Z,4.05
2024-04-11T21:45:47.264Z,3.33
2024-04-11T21:51:01.229Z,3.78
2024-04-11T21:56:11.738Z,3.60
2024-04-11T22:01:20.842Z,3.63
2024-04-11T22:06:37.965Z,3.55
2024-04-11T22:11:49.121Z,4.07
2024-04-11T22:16:59.426Z,3.92
2024-04-11T22:22:16.198Z,3.83
2024-04-11T22:27:28.982Z,3.45
2024-04-11T22:32:42.147Z,3.50
2024-04-11T22:37:56.737Z,4.00
2024-04-11T22:43:06.129Z,4.13
2024-04-11T22:48:23.537Z,3.42
2024-04-11T22:53:35.163Z,4.10
2024-04-11T22:58:48.914Z,3.50
2024-04-11T23:04:00.037Z,4.30
2024-04-11T23:09:11.967Z,3.67
2024-04-11T23:14:20.860Z,4.32
2024-04-11T23:19:32.692Z,3.75
2024-04-11T23:24:44.267Z,3.22
2024-04-11T23:29:53.216Z,3.33
2024-04-11T23:35:07.539Z,3.10
2024-04-11T23:40:25.590Z,4.13
2024-04-11T23:45:34.350Z,3.50
2024-04-11T23:50:43.984Z,2.65
2024-04-11T23:56:12.773Z,2.80
